createdAt,value
2022-09-12T00:01:05.664Z,2.63
2022-09-12T00:03:34.156Z,1.60
2022-09-12T00:06:09.751Z,2.00
2022-09-12T00:08:38.110Z,2.22
2022-09-12T00:11:08.632Z,2.22
2022-09-12T00:13:41.337Z,2.20
2022-09-12T00:16:16.012Z,3.60
2022-09-12T00:18:46.777Z,2.33
2022-09-12T00:21:17.467Z,1.40
2022-09-12T00:23:45.772Z,1.55
2022-09-12T00:26:14.635Z,2.80
2022-09-12T00:28:43.142Z,4.93
2022-09-12T00:31:14.262Z,2.60
2022-09-12T00:33:42.739Z,5.68
2022-09-12T00:36:12.894Z,3.47
2022-09-12T00:38:42.524Z,5.50
2022-09-12T00:41:17.126Z,2.97
2022-09-12T00:43:46.620Z,3.95
2022-09-12T00:46:24.922Z,2.60
2022-09-12T00:48:59.462Z,3.33
2022-09-12T00:51:28.428Z,3.67
2022-09-12T00:54:00.101Z,1.83
2022-09-12T00:56:29.093Z,2.13
2022-09-12T00:59:01.946Z,3.22
2022-09-12T01:01:32.627Z,1.48
2022-09-12T01:04:01.577Z,1.92
2022-09-12T01:06:34.115Z,1.98
2022-09-12T01:09:05.431Z,1.65
2022-09-12T01:11:35.470Z,2.13
2022-09-12T01:14:03.615Z,3.20
2022-09-12T01:16:32.213Z,1.30
2022-09-12T01:19:16.302Z,2.05
2022-09-12T01:21:56.513Z,2.05
2022-09-12T01:24:45.178Z,2.75
2022-09-12T01:27:42.391Z,1.60
2022-09-12T01:30:40.667Z,2.60
2022-09-12T01:33:29.870Z,1.40
2022-09-12T01:36:20.905Z,1.55
2022-09-12T01:38:51.292Z,1.15
2022-09-12T01:41:28.423Z,2.72
2022-09-12T01:44:06.926Z,1.60
2022-09-12T01:46:42.976Z,3.20
2022-09-12T01:49:18.695Z,3.60
2022-09-12T01:51:57.274Z,3.13
2022-09-12T01:54:30.446Z,1.92
2022-09-12T01:57:03.448Z,2.13
2022-09-12T01:59:35.173Z,2.28
2022-09-12T02:02:10.160Z,2.28
2022-09-12T02:04:43.045Z,4.10
2022-09-12T02:07:15.485Z,2.92
2022-09-12T02:09:47.814Z,2.85
2022-09-12T02:12:19.766Z,2.15
2022-09-12T02:14:51.804Z,3.67
2022-09-12T02:17:23.627Z,4.05
2022-09-12T02:19:56.808Z,1.63
2022-09-12T02:22:28.839Z,4.50
2022-09-12T02:25:00.929Z,3.13
2022-09-12T02:27:33.980Z,3.90
2022-09-12T02:30:02.225Z,3.83
2022-09-12T02:32:36.899Z,2.42
2022-09-12T02:35:10.688Z,2.55
2022-09-12T02:37:52.678Z,2.00
2022-09-12T02:40:20.915Z,1.13
2022-09-12T02:42:49.014Z,2.53
2022-09-12T02:45:19.071Z,3.42
2022-09-12T02:47:52.640Z,2.00
2022-09-12T02:50:21.481Z,2.30
2022-09-12T02:52:49.704Z,3.17
2022-09-12T02:55:18.754Z,1.98
2022-09-12T02:57:46.787Z,1.38
2022-09-12T03:00:16.158Z,1.30
2022-09-12T03:03:05.619Z,2.00
2022-09-12T03:05:36.775Z,1.67
2022-09-12T03:08:41.135Z,1.23
2022-09-12T03:11:35.486Z,2.00
2022-09-12T03:14:16.059Z,1.38
2022-09-12T03:16:51.877Z,1.20
2022-09-12T03:19:28.313Z,2.63
2022-09-12T03:22:04.878Z,1.35
2022-09-12T03:24:38.168Z,1.38
2022-09-12T03:27:11.181Z,1.63
2022-09-12T03:29:41.035Z,1.98
2022-09-12T03:32:09.017Z,1.65
2022-09-12T03:34:38.938Z,1.73
2022-09-12T03:37:07.562Z,1.58
2022-09-12T03:39:35.945Z,1.58
2022-09-12T03:42:04.076Z,2.00
2022-09-12T03:44:32.337Z,1.48
2022-09-12T03:47:00.323Z,1.80
2022-09-12T03:49:28.326Z,2.38
2022-09-12T03:51:57.690Z,1.85
2022-09-12T03:54:25.767Z,1.60
2022-09-12T03:56:53.764Z,3.10
2022-09-12T03:59:21.764Z,3.10
2022-09-12T04:01:49.795Z,3.83
2022-09-12T04:04:18.134Z,2.97
2022-09-12T04:06:46.135Z,4.03
2022-09-12T04:09:15.495Z,6.07
2022-09-12T04:11:43.502Z,6.13
2022-09-12T04:14:11.583Z,6.93
2022-09-12T04:16:39.948Z,6.82
2022-09-12T04:19:08.202Z,5.78
2022-09-12T04:21:36.249Z,7.30
2022-09-12T04:24:04.385Z,6.57
2022-09-12T04:26:33.848Z,6.40
2022-09-12T04:29:02.023Z,7.70
2022-09-12T04:31:30.058Z,6.40
2022-09-12T04:33:59.496Z,11.98
2022-09-12T04:36:28.679Z,8.45
2022-09-12T04:38:57.258Z,8.90
2022-09-12T04:41:28.085Z,5.47
2022-09-12T04:43:59.442Z,5.70
2022-09-12T04:46:27.875Z,5.32
2022-09-12T04:48:57.053Z,5.10
2022-09-12T04:51:28.794Z,3.65
2022-09-12T04:53:59.001Z,4.40
2022-09-12T04:56:28.052Z,2.80
2022-09-12T04:58:58.507Z,3.53
2022-09-12T05:01:26.970Z,5.65
2022-09-12T05:03:55.961Z,5.80
2022-09-12T05:06:25.766Z,3.67
2022-09-12T05:08:56.376Z,6.82
2022-09-12T05:11:41.305Z,7.63
2022-09-12T05:14:17.114Z,5.32
2022-09-12T05:16:49.217Z,6.65
2022-09-12T05:19:17.793Z,5.10
2022-09-12T05:21:46.488Z,6.32
2022-09-12T05:24:14.472Z,9.05
2022-09-12T05:26:42.719Z,4.18
2022-09-12T05:29:11.038Z,5.82
2022-09-12T05:31:40.949Z,4.95
2022-09-12T05:34:10.311Z,3.75
2022-09-12T05:36:38.686Z,4.93
2022-09-12T05:39:07.115Z,3.78
2022-09-12T05:41:36.451Z,5.45
2022-09-12T05:44:07.405Z,3.47
2022-09-12T05:46:39.581Z,4.10
2022-09-12T05:49:12.049Z,2.95
2022-09-12T05:51:42.395Z,3.25
2022-09-12T05:54:13.382Z,3.63
2022-09-12T05:56:43.007Z,3.25
2022-09-12T05:59:14.390Z,3.75
2022-09-12T06:01:42.858Z,4.57
2022-09-12T06:04:13.166Z,3.45
2022-09-12T06:06:45.145Z,2.88
2022-09-12T06:09:14.489Z,4.00
2022-09-12T06:11:43.347Z,4.75
2022-09-12T06:14:13.131Z,3.80
2022-09-12T06:16:41.259Z,5.10
2022-09-12T06:19:16.125Z,3.35
2022-09-12T06:21:44.501Z,3.63
2022-09-12T06:24:12.761Z,3.55
2022-09-12T06:26:40.795Z,3.15
2022-09-12T06:29:08.889Z,2.30
2022-09-12T06:31:38.069Z,6.32
2022-09-12T06:34:07.942Z,4.50
2022-09-12T06:36:39.515Z,3.55
2022-09-12T06:39:11.410Z,4.10
2022-09-12T06:41:43.757Z,5.28
2022-09-12T06:44:14.386Z,4.75
2022-09-12T06:46:42.741Z,4.30
2022-09-12T06:49:11.440Z,4.13
2022-09-12T06:51:42.407Z,3.20
2022-09-12T06:54:10.800Z,6.35
2022-09-12T06:56:38.947Z,6.00
2022-09-12T06:59:07.345Z,5.25
2022-09-12T07:01:35.435Z,7.50
2022-09-12T07:04:04.617Z,7.35
2022-09-12T07:06:37.737Z,10.30
2022-09-12T07:09:10.689Z,6.70
2022-09-12T07:11:40.159Z,7.38
2022-09-12T07:14:09.886Z,7.07
2022-09-12T07:16:38.210Z,3.00
2022-09-12T07:19:08.570Z,10.20
2022-09-12T07:21:40.675Z,5.63
2022-09-12T07:24:11.236Z,4.93
2022-09-12T07:26:42.118Z,3.80
2022-09-12T07:32:05.636Z,4.28
2022-09-12T07:34:33.707Z,4.15
2022-09-12T07:37:01.916Z,3.85
2022-09-12T07:39:31.312Z,4.13
2022-09-12T07:42:00.487Z,5.53
2022-09-12T07:44:29.115Z,5.95
2022-09-12T07:46:57.101Z,4.20
2022-09-12T07:49:25.216Z,11.85
2022-09-12T07:51:53.616Z,8.57
2022-09-12T07:54:21.816Z,9.55
2022-09-12T07:56:51.727Z,9.65
2022-09-12T07:59:41.539Z,9.65
2022-09-12T08:02:14.666Z,9.05
2022-09-12T08:04:45.183Z,6.30
2022-09-12T08:07:13.191Z,11.77
2022-09-12T08:09:41.271Z,8.45
2022-09-12T08:12:10.820Z,8.18
2022-09-12T08:14:38.963Z,6.57
2022-09-12T08:17:06.959Z,7.57
2022-09-12T08:19:35.021Z,8.98
2022-09-12T08:22:03.185Z,17.00
2022-09-12T08:24:32.440Z,12.35
2022-09-12T08:27:00.522Z,9.45
2022-09-12T08:29:29.989Z,10.55
2022-09-12T08:31:58.385Z,9.63
2022-09-12T08:34:26.922Z,8.98
2022-09-12T08:36:55.128Z,5.90
2022-09-12T08:39:24.651Z,7.72
2022-09-12T08:42:00.220Z,6.88
2022-09-12T08:45:04.243Z,6.32
2022-09-12T08:47:37.473Z,9.05
2022-09-12T08:50:13.420Z,7.45
2022-09-12T08:52:48.253Z,8.65
2022-09-12T08:55:28.621Z,7.85
2022-09-12T08:57:56.717Z,9.30
2022-09-12T09:00:31.736Z,6.18
2022-09-12T09:03:26.985Z,5.03
2022-09-12T09:06:04.618Z,7.38
2022-09-12T09:08:46.157Z,6.70
2022-09-12T09:11:28.078Z,6.10
2022-09-12T09:14:27.513Z,7.00
2022-09-12T09:16:58.954Z,5.03
2022-09-12T09:19:31.713Z,7.22
2022-09-12T09:22:02.054Z,5.78
2022-09-12T09:24:36.013Z,6.78
2022-09-12T09:27:23.565Z,3.47
2022-09-12T09:29:57.127Z,5.03
2022-09-12T09:32:31.316Z,6.38
2022-09-12T09:34:59.345Z,4.68
2022-09-12T09:37:37.346Z,5.10
2022-09-12T09:40:16.485Z,5.57
2022-09-12T09:42:54.001Z,2.88
2022-09-12T09:45:24.603Z,5.82
2022-09-12T09:47:58.380Z,4.53
2022-09-12T09:50:26.849Z,4.82
2022-09-12T09:52:58.378Z,4.43
2022-09-12T09:55:43.432Z,4.85
2022-09-12T09:58:11.839Z,2.65
2022-09-12T10:00:40.744Z,3.72
2022-09-12T10:03:27.725Z,2.72
2022-09-12T10:05:58.716Z,4.50
2022-09-12T10:08:29.963Z,9.32
2022-09-12T10:11:02.018Z,5.90
2022-09-12T10:13:40.875Z,4.38
2022-09-12T10:16:20.426Z,3.67
2022-09-12T10:18:52.595Z,2.92
2022-09-12T10:21:32.406Z,2.92
2022-09-12T10:24:07.706Z,1.90
2022-09-12T10:26:39.536Z,2.80
2022-09-12T10:29:20.657Z,2.13
2022-09-12T10:31:54.249Z,2.97
2022-09-12T10:34:30.568Z,3.33
2022-09-12T10:37:05.578Z,2.40
2022-09-12T10:39:35.990Z,3.13
2022-09-12T10:42:05.543Z,2.28
2022-09-12T10:44:35.291Z,1.70
2022-09-12T10:47:21.991Z,2.72
2022-09-12T10:49:51.370Z,2.95
2022-09-12T10:52:23.492Z,2.40
2022-09-12T10:54:51.719Z,2.28
2022-09-12T10:57:50.133Z,2.42
2022-09-12T11:00:27.522Z,1.52
2022-09-12T11:03:13.473Z,1.70
2022-09-12T11:05:54.847Z,3.50
2022-09-12T11:08:41.024Z,1.75
2022-09-12T11:11:18.555Z,1.30
2022-09-12T11:14:08.693Z,2.60
2022-09-12T11:16:46.127Z,1.48
2022-09-12T11:19:37.610Z,2.55
2022-09-12T11:22:20.457Z,1.83
2022-09-12T11:25:07.836Z,2.00
2022-09-12T11:27:50.777Z,1.58
2022-09-12T11:30:19.574Z,2.25
2022-09-12T11:33:12.054Z,1.95
2022-09-12T11:35:51.856Z,2.20
2022-09-12T11:38:48.495Z,3.45
2022-09-12T12:58:32.769Z,1.38
2022-09-12T13:01:14.000Z,2.97
2022-09-12T13:03:45.140Z,2.50
2022-09-12T13:06:29.882Z,3.83
2022-09-12T13:09:02.295Z,2.15
2022-09-12T13:11:34.970Z,1.83
2022-09-12T13:14:07.073Z,2.53
2022-09-12T13:16:37.181Z,1.73
2022-09-12T13:19:08.220Z,2.50
2022-09-12T13:21:36.460Z,1.50
2022-09-12T13:24:07.368Z,3.67
2022-09-12T13:26:37.294Z,1.08
2022-09-12T13:29:16.153Z,4.57
2022-09-12T13:31:47.519Z,2.17
2022-09-12T13:34:20.958Z,3.55
2022-09-12T13:37:24.790Z,1.58
2022-09-12T13:40:05.851Z,2.15
2022-09-12T13:42:42.089Z,1.65
2022-09-12T13:45:19.273Z,1.30
2022-09-12T13:47:49.806Z,1.90
2022-09-12T13:50:22.343Z,1.77
2022-09-12T13:52:55.201Z,2.88
2022-09-12T13:55:32.404Z,1.60
2022-09-12T13:58:03.211Z,1.45
2022-09-12T14:00:35.483Z,1.63
2022-09-12T14:03:31.600Z,1.67
2022-09-12T14:06:00.260Z,2.60
2022-09-12T14:08:28.474Z,1.83
2022-09-12T14:10:56.587Z,2.28
2022-09-12T14:13:30.951Z,2.15
2022-09-12T14:16:00.511Z,1.38
2022-09-12T14:18:31.195Z,2.00
2022-09-12T14:21:10.557Z,2.03
2022-09-12T14:23:42.613Z,1.88
2022-09-12T14:26:13.689Z,2.97
2022-09-12T14:28:42.807Z,3.45
2022-09-12T14:31:25.638Z,1.55
2022-09-12T14:33:55.707Z,1.63
2022-09-12T14:36:26.468Z,1.92
2022-09-12T14:38:57.524Z,2.28
2022-09-12T14:41:28.940Z,1.58
2022-09-12T14:44:01.322Z,1.77
2022-09-12T14:46:34.906Z,1.50
2022-09-12T14:49:09.085Z,1.58
2022-09-12T14:51:40.809Z,2.40
2022-09-12T14:54:37.270Z,1.73
2022-09-12T14:57:08.011Z,2.22
2022-09-12T14:59:40.798Z,1.48
2022-09-12T15:02:27.653Z,2.80
2022-09-12T15:05:17.937Z,3.55
2022-09-12T15:07:53.870Z,2.35
2022-09-12T15:10:26.230Z,2.33
2022-09-12T15:13:14.325Z,4.53
2022-09-12T15:15:44.119Z,1.80
2022-09-12T15:18:13.911Z,1.00
2022-09-12T15:20:44.541Z,1.42
2022-09-12T15:23:21.479Z,1.45
2022-09-12T15:25:51.022Z,1.15
2022-09-12T15:28:21.622Z,1.45
2022-09-12T15:30:52.150Z,1.20
2022-09-12T15:33:24.106Z,1.60
2022-09-12T15:35:52.927Z,1.17
2022-09-12T15:38:25.796Z,2.33
2022-09-12T15:40:55.055Z,1.73
2022-09-12T15:43:23.773Z,0.90
2022-09-12T15:45:52.476Z,1.35
2022-09-12T15:48:22.195Z,1.17
2022-09-12T15:50:50.395Z,1.50
2022-09-12T15:53:19.119Z,2.25
2022-09-12T15:55:47.158Z,2.03
2022-09-12T15:58:15.194Z,1.50
2022-09-12T16:00:43.368Z,3.00
2022-09-12T16:03:23.887Z,5.20
2022-09-12T16:05:56.164Z,1.92
2022-09-12T16:08:24.387Z,2.35
2022-09-12T16:10:55.884Z,1.27
2022-09-12T16:13:24.086Z,2.00
2022-09-12T16:15:53.038Z,2.00
2022-09-12T16:18:22.426Z,1.58
2022-09-12T16:20:53.663Z,1.50
2022-09-12T16:23:22.131Z,1.83
2022-09-12T16:25:58.133Z,1.58
2022-09-12T16:28:26.343Z,1.42
2022-09-12T16:30:57.565Z,2.08
2022-09-12T16:33:27.622Z,1.60
2022-09-12T16:36:03.127Z,1.40
2022-09-12T16:38:31.451Z,3.17
2022-09-12T16:41:02.987Z,2.17
2022-09-12T16:43:31.494Z,2.33
2022-09-12T16:46:04.359Z,2.58
2022-09-12T16:48:34.701Z,1.85
2022-09-12T16:51:07.267Z,1.30
2022-09-12T16:53:37.014Z,1.90
2022-09-12T16:56:05.382Z,2.13
2022-09-12T16:58:37.476Z,1.77
2022-09-12T17:01:11.151Z,1.63
2022-09-12T17:03:40.869Z,2.90
2022-09-12T17:06:10.825Z,1.20
2022-09-12T17:08:41.303Z,1.42
2022-09-12T17:11:11.412Z,4.82
2022-09-12T17:14:03.189Z,6.03
2022-09-12T17:16:30.021Z,1.38
2022-09-12T17:18:59.462Z,5.57
2022-09-12T17:21:27.619Z,2.92
2022-09-12T17:23:56.056Z,1.50
2022-09-12T17:26:24.298Z,2.30
2022-09-12T17:28:52.366Z,2.45
2022-09-12T17:31:20.857Z,3.72
2022-09-12T17:33:49.717Z,4.22
2022-09-12T17:36:23.293Z,3.72
2022-09-12T17:38:52.097Z,3.08
2022-09-12T17:41:23.105Z,3.22
2022-09-12T17:43:55.147Z,4.32
2022-09-12T17:46:24.319Z,3.83
2022-09-12T17:48:53.809Z,1.38
2022-09-12T17:51:25.922Z,2.65
2022-09-12T17:54:00.144Z,2.55
2022-09-12T17:56:30.539Z,2.13
2022-09-12T17:58:59.830Z,2.35
2022-09-12T18:01:46.565Z,2.42
2022-09-12T18:04:14.871Z,2.58
2022-09-12T18:06:48.130Z,2.50
2022-09-12T18:09:18.105Z,2.35
2022-09-12T18:11:46.840Z,3.15
2022-09-12T18:14:15.065Z,1.92
2022-09-12T18:16:43.432Z,3.80
2022-09-12T18:19:13.297Z,2.80
2022-09-12T18:21:41.875Z,2.35
2022-09-12T18:24:12.733Z,2.85
2022-09-12T18:26:40.862Z,3.08
2022-09-12T18:29:09.113Z,2.05
2022-09-12T18:31:38.128Z,2.53
2022-09-12T18:34:07.787Z,4.35
2022-09-12T18:36:35.989Z,2.08
2022-09-12T18:39:04.022Z,1.70
2022-09-12T18:41:33.946Z,3.05
2022-09-12T18:44:03.178Z,1.73
2022-09-12T18:46:32.642Z,3.05
2022-09-12T18:49:01.993Z,5.15
2022-09-12T18:51:32.926Z,1.77
2022-09-12T18:54:03.767Z,4.10
2022-09-12T18:56:35.948Z,1.20
2022-09-12T18:59:05.495Z,2.92
2022-09-12T19:01:34.766Z,3.38
2022-09-12T19:04:04.780Z,2.00
2022-09-12T19:06:34.923Z,2.60
2022-09-12T19:09:07.538Z,2.10
2022-09-12T19:11:39.881Z,2.80
2022-09-12T19:14:08.802Z,1.90
2022-09-12T19:16:36.887Z,3.65
2022-09-12T19:19:06.189Z,2.67
2022-09-12T19:21:35.349Z,2.85
2022-09-12T19:24:05.472Z,3.10
2022-09-12T19:26:34.529Z,2.63
2022-09-12T19:29:04.531Z,3.33
2022-09-12T19:31:33.162Z,3.08
2022-09-12T19:34:02.413Z,2.25
2022-09-12T19:36:47.238Z,3.25
2022-09-12T19:39:16.665Z,1.83
2022-09-12T19:41:45.179Z,2.03
2022-09-12T19:44:14.731Z,3.00
2022-09-12T19:46:42.854Z,2.22
2022-09-12T19:49:12.811Z,2.13
2022-09-12T19:51:41.185Z,1.98
2022-09-12T19:54:09.540Z,2.15
2022-09-12T19:56:37.633Z,3.13
2022-09-12T19:59:05.668Z,2.47
2022-09-12T20:01:37.079Z,2.35
2022-09-12T20:04:05.981Z,2.38
2022-09-12T20:06:34.026Z,2.53
2022-09-12T20:09:02.471Z,3.63
2022-09-12T20:11:31.186Z,3.92
2022-09-12T20:13:59.258Z,2.97
2022-09-12T20:16:29.483Z,2.33
2022-09-12T20:19:01.062Z,2.70
2022-09-12T20:21:33.004Z,3.92
2022-09-12T20:24:03.030Z,3.10
2022-09-12T20:26:31.314Z,2.60
2022-09-12T20:28:59.719Z,2.45
2022-09-12T20:31:28.281Z,2.38
2022-09-12T20:33:56.761Z,1.98
2022-09-12T20:36:26.944Z,3.95
2022-09-12T20:38:57.844Z,3.08
2022-09-12T20:41:27.150Z,2.17
2022-09-12T20:43:56.516Z,2.42
2022-09-12T20:46:25.711Z,2.60
2022-09-12T20:48:54.620Z,2.70
2022-09-12T20:51:24.306Z,2.08
2022-09-12T20:53:56.452Z,1.70
2022-09-12T20:56:26.700Z,4.28
2022-09-12T20:58:55.292Z,2.75
2022-09-12T21:01:23.943Z,4.57
2022-09-12T21:03:52.103Z,3.50
2022-09-12T21:06:21.072Z,2.65
2022-09-12T21:08:50.009Z,3.33
2022-09-12T21:11:20.421Z,2.60
2022-09-12T21:13:48.692Z,2.03
2022-09-12T21:16:18.452Z,2.30
2022-09-12T21:18:47.127Z,2.42
2022-09-12T21:21:17.018Z,2.53
2022-09-12T21:23:45.118Z,3.28
2022-09-12T21:26:13.623Z,4.43
2022-09-12T21:28:43.044Z,2.08
2022-09-12T21:31:11.133Z,3.60
2022-09-12T21:33:39.247Z,2.85
2022-09-12T21:36:08.382Z,2.17
2022-09-12T21:38:36.420Z,2.22
2022-09-12T21:41:06.869Z,3.58
2022-09-12T21:43:34.945Z,2.53
2022-09-12T21:46:05.199Z,2.72
2022-09-12T21:48:33.799Z,4.95
2022-09-12T21:51:02.110Z,5.47
2022-09-12T21:53:30.134Z,3.75
2022-09-12T21:56:02.722Z,4.88
2022-09-12T21:58:31.150Z,1.70
2022-09-12T22:01:00.915Z,2.38
2022-09-12T22:03:30.758Z,4.20
2022-09-12T22:05:59.269Z,3.72
2022-09-12T22:08:28.010Z,4.90
2022-09-12T22:10:59.705Z,2.53
2022-09-12T22:13:27.997Z,3.03
2022-09-12T22:15:56.604Z,2.63
2022-09-12T22:18:24.652Z,1.65
2022-09-12T22:21:02.152Z,3.10
2022-09-12T22:23:47.554Z,4.20
2022-09-12T22:26:15.905Z,2.20
2022-09-12T22:28:44.394Z,1.85
2022-09-12T22:31:13.782Z,2.42
2022-09-12T22:33:41.890Z,1.50
2022-09-12T22:36:11.972Z,1.95
2022-09-12T22:38:40.323Z,2.15
2022-09-12T22:41:10.707Z,2.65
2022-09-12T22:43:39.119Z,2.15
2022-09-12T22:46:08.211Z,2.20
2022-09-12T22:48:37.342Z,4.65
2022-09-12T22:51:05.642Z,1.67
2022-09-12T22:53:36.223Z,3.10
2022-09-12T22:56:05.581Z,4.65
2022-09-12T22:58:33.952Z,1.95
2022-09-12T23:01:02.053Z,2.00
2022-09-12T23:03:30.154Z,2.33
2022-09-12T23:05:58.203Z,2.15
2022-09-12T23:08:29.663Z,2.65
2022-09-12T23:11:06.826Z,3.15
2022-09-12T23:13:34.887Z,3.92
2022-09-12T23:16:04.899Z,1.90
2022-09-12T23:18:35.946Z,2.22
2022-09-12T23:21:07.485Z,3.33
2022-09-12T23:23:36.502Z,2.22
2022-09-12T23:26:09.023Z,1.90
2022-09-12T23:28:37.555Z,3.70
2022-09-12T23:31:05.933Z,2.67
2022-09-12T23:33:34.135Z,2.55
2022-09-12T23:36:03.129Z,1.90
2022-09-12T23:38:31.435Z,3.08
2022-09-12T23:40:59.789Z,2.13
2022-09-12T23:43:29.438Z,3.67
2022-09-12T23:45:58.187Z,2.15
2022-09-12T23:48:26.978Z,2.47
2022-09-12T23:50:55.618Z,3.15
2022-09-12T23:53:23.782Z,2.63
2022-09-12T23:55:52.094Z,3.25
2022-09-12T23:58:21.607Z,3.38
